createdAt,value
2018-09-10T00:00:27.234Z,0.00
2018-09-10T00:01:27.195Z,0.00
2018-09-10T00:02:27.178Z,0.00
2018-09-10T00:03:27.168Z,0.00
2018-09-10T00:04:27.199Z,0.00
2018-09-10T00:05:27.146Z,0.00
2018-09-10T00:06:27.175Z,0.00
2018-09-10T00:07:27.124Z,0.00
2018-09-10T00:08:27.120Z,0.00
2018-09-10T00:09:27.107Z,0.00
2018-09-10T00:10:27.116Z,0.00
2018-09-10T00:11:27.079Z,0.00
2018-09-10T00:12:27.090Z,0.00
2018-09-10T00:13:27.054Z,0.00
2018-09-10T00:14:27.049Z,0.00
2018-09-10T00:15:27.076Z,0.00
2018-09-10T00:16:27.059Z,0.00
2018-09-10T00:17:27.044Z,0.00
2018-09-10T00:18:27.014Z,0.00
2018-09-10T00:19:27.042Z,0.00
2018-09-10T00:20:27.034Z,0.00
2018-09-10T00:21:27.014Z,0.00
2018-09-10T00:22:26.956Z,0.00
2018-09-10T00:23:26.949Z,0.00
2018-09-10T00:24:26.949Z,0.00
2018-09-10T00:25:26.935Z,0.00
2018-09-10T00:26:26.928Z,0.00
2018-09-10T00:27:26.927Z,0.00
2018-09-10T00:28:26.900Z,0.00
2018-09-10T00:29:26.901Z,0.00
2018-09-10T00:30:26.884Z,0.00
2018-09-10T00:31:26.880Z,0.00
2018-09-10T00:32:26.877Z,0.00
2018-09-10T00:33:26.854Z,0.00
2018-09-10T00:34:26.839Z,0.00
2018-09-10T00:35:26.844Z,0.00
2018-09-10T00:36:26.813Z,0.00
2018-09-10T00:37:26.841Z,0.00
2018-09-10T00:38:26.790Z,0.00
2018-09-10T00:39:26.802Z,0.00
2018-09-10T00:40:26.772Z,0.00
2018-09-10T00:41:26.754Z,0.00
2018-09-10T00:42:26.773Z,0.00
2018-09-10T00:43:26.772Z,0.00
2018-09-10T00:44:26.759Z,0.00
2018-09-10T00:45:26.717Z,0.00
2018-09-10T00:46:26.699Z,0.00
2018-09-10T00:47:26.727Z,0.00
2018-09-10T00:48:26.683Z,0.00
2018-09-10T00:49:26.926Z,0.00
2018-09-10T00:50:26.659Z,0.00
2018-09-10T00:51:26.644Z,0.00
2018-09-10T00:52:26.639Z,0.00
2018-09-10T00:53:26.629Z,0.00
2018-09-10T00:54:26.639Z,0.00
2018-09-10T00:55:26.603Z,0.00
2018-09-10T00:56:26.588Z,0.00
2018-09-10T00:57:26.576Z,0.00
2018-09-10T00:58:26.591Z,0.00
2018-09-10T00:59:26.552Z,0.00
2018-09-10T01:00:26.570Z,0.00
2018-09-10T01:01:26.573Z,0.00
2018-09-10T01:02:26.532Z,0.00
2018-09-10T01:03:26.517Z,0.00
2018-09-10T01:04:26.508Z,0.00
2018-09-10T01:05:26.504Z,0.00
2018-09-10T01:06:26.499Z,0.00
2018-09-10T01:07:26.479Z,0.00
2018-09-10T01:08:26.456Z,0.00
2018-09-10T01:09:26.529Z,0.00
2018-09-10T01:10:26.457Z,0.00
2018-09-10T01:11:26.426Z,0.00
2018-09-10T01:12:26.418Z,0.00
2018-09-10T01:13:26.483Z,0.00
2018-09-10T01:14:26.391Z,0.00
2018-09-10T01:15:26.407Z,0.00
2018-09-10T01:16:26.401Z,0.00
2018-09-10T01:17:26.356Z,0.00
2018-09-10T01:18:26.345Z,0.00
2018-09-10T01:19:26.338Z,0.00
2018-09-10T01:20:26.324Z,0.00
2018-09-10T01:21:26.318Z,0.00
2018-09-10T01:22:26.334Z,0.00
2018-09-10T01:23:26.287Z,0.00
2018-09-10T01:24:26.280Z,0.00
2018-09-10T01:25:26.429Z,0.00
2018-09-10T01:26:26.257Z,0.00
2018-09-10T01:27:26.244Z,0.00
2018-09-10T01:28:26.245Z,0.00
2018-09-10T01:29:26.226Z,0.00
2018-09-10T01:30:26.256Z,0.00
2018-09-10T01:31:26.207Z,0.00
2018-09-10T01:32:26.186Z,0.00
2018-09-10T01:33:26.177Z,0.00
2018-09-10T01:34:26.166Z,0.00
2018-09-10T01:35:26.152Z,0.00
2018-09-10T01:36:26.164Z,0.00
2018-09-10T01:37:26.134Z,0.00
2018-09-10T01:38:26.121Z,0.00
2018-09-10T01:39:26.107Z,0.00
2018-09-10T01:40:26.122Z,0.00
2018-09-10T01:41:26.085Z,0.00
2018-09-10T01:42:26.078Z,0.00
2018-09-10T01:43:26.079Z,0.00
2018-09-10T01:44:26.111Z,0.00
2018-09-10T01:45:26.048Z,0.00
2018-09-10T01:46:26.062Z,0.00
2018-09-10T01:47:26.027Z,0.00
2018-09-10T01:48:26.026Z,0.00
2018-09-10T01:49:26.002Z,0.00
2018-09-10T01:50:25.992Z,0.00
2018-09-10T01:51:26.267Z,0.00
2018-09-10T01:52:25.966Z,0.00
2018-09-10T01:53:25.951Z,0.00
2018-09-10T01:54:25.942Z,0.00
2018-09-10T01:55:25.930Z,0.00
2018-09-10T01:56:25.921Z,0.00
2018-09-10T01:57:25.930Z,0.00
2018-09-10T01:58:25.899Z,0.00
2018-09-10T01:59:25.914Z,0.00
2018-09-10T02:00:25.872Z,0.00
2018-09-10T02:01:25.885Z,0.00
2018-09-10T02:02:25.852Z,0.00
2018-09-10T02:03:25.839Z,0.00
2018-09-10T02:04:25.834Z,0.00
2018-09-10T02:05:25.822Z,0.00
2018-09-10T02:06:25.824Z,0.00
2018-09-10T02:07:25.789Z,0.00
2018-09-10T02:08:25.786Z,0.00
2018-09-10T02:09:25.767Z,0.00
2018-09-10T02:10:25.760Z,0.00
2018-09-10T02:11:25.785Z,0.00
2018-09-10T02:12:25.737Z,0.00
2018-09-10T02:13:25.742Z,0.00
2018-09-10T02:14:25.716Z,0.00
2018-09-10T02:15:25.702Z,0.00
2018-09-10T02:16:25.714Z,0.00
2018-09-10T02:17:25.675Z,0.00
2018-09-10T02:18:25.669Z,0.00
2018-09-10T02:19:25.657Z,0.00
2018-09-10T02:20:25.710Z,0.00
2018-09-10T02:21:25.659Z,0.00
2018-09-10T02:22:25.621Z,0.00
2018-09-10T02:23:25.645Z,0.00
2018-09-10T02:24:25.597Z,0.00
2018-09-10T02:25:25.596Z,0.00
2018-09-10T02:26:25.596Z,0.00
2018-09-10T02:27:25.669Z,0.00
2018-09-10T02:28:25.552Z,0.00
2018-09-10T02:29:25.543Z,0.00
2018-09-10T02:30:25.537Z,0.00
2018-09-10T02:31:25.523Z,0.00
2018-09-10T02:32:25.532Z,0.00
2018-09-10T02:33:25.497Z,0.00
2018-09-10T02:34:25.485Z,0.00
2018-09-10T02:35:25.480Z,0.00
2018-09-10T02:36:25.489Z,0.00
2018-09-10T02:37:25.452Z,0.00
2018-09-10T02:38:25.463Z,0.00
2018-09-10T02:39:25.470Z,0.00
2018-09-10T02:40:25.418Z,0.00
2018-09-10T02:41:25.424Z,0.00
2018-09-10T02:42:25.420Z,0.00
2018-09-10T02:43:25.385Z,0.00
2018-09-10T02:44:25.381Z,0.00
2018-09-10T02:45:25.364Z,0.00
2018-09-10T02:46:25.351Z,0.00
2018-09-10T02:47:25.359Z,0.00
2018-09-10T02:48:25.328Z,0.00
2018-09-10T02:49:25.316Z,0.00
2018-09-10T02:50:25.304Z,0.00
2018-09-10T02:51:25.299Z,0.00
2018-09-10T02:52:25.307Z,0.00
2018-09-10T02:53:25.299Z,0.00
2018-09-10T02:54:25.255Z,0.00
2018-09-10T02:55:25.246Z,0.00
2018-09-10T02:56:25.236Z,0.00
2018-09-10T02:57:25.224Z,0.00
2018-09-10T02:58:25.251Z,0.00
2018-09-10T02:59:25.212Z,0.00
2018-09-10T03:00:25.219Z,0.00
2018-09-10T03:01:25.183Z,0.00
2018-09-10T03:02:25.176Z,0.00
2018-09-10T03:03:25.161Z,0.00
2018-09-10T03:04:25.169Z,0.00
2018-09-10T03:05:25.142Z,0.00
2018-09-10T03:06:25.120Z,0.00
2018-09-10T03:07:25.132Z,0.00
2018-09-10T03:08:25.113Z,0.00
2018-09-10T03:09:25.115Z,0.00
2018-09-10T03:10:25.077Z,0.00
2018-09-10T03:11:25.074Z,0.00
2018-09-10T03:12:25.077Z,0.00
2018-09-10T03:13:25.056Z,0.00
2018-09-10T03:14:25.070Z,0.00
2018-09-10T03:15:25.042Z,0.00
2018-09-10T03:16:25.013Z,0.00
2018-09-10T03:17:25.027Z,0.00
2018-09-10T03:18:24.986Z,0.00
2018-09-10T03:19:25.004Z,0.00
2018-09-10T03:20:24.959Z,0.00
2018-09-10T03:21:24.963Z,0.00
2018-09-10T03:22:24.941Z,0.00
2018-09-10T03:23:24.957Z,0.00
2018-09-10T03:24:24.938Z,0.00
2018-09-10T03:25:24.916Z,0.00
2018-09-10T03:26:24.922Z,0.00
2018-09-10T03:27:24.912Z,0.00
2018-09-10T03:28:24.877Z,0.00
2018-09-10T03:29:24.866Z,0.00
2018-09-10T03:31:41.090Z,0.00
2018-09-10T03:32:41.053Z,0.00
2018-09-10T03:33:41.129Z,0.00
2018-09-10T03:34:41.060Z,0.00
2018-09-10T03:35:41.021Z,0.00
2018-09-10T03:36:41.029Z,0.00
2018-09-10T03:37:41.005Z,0.00
2018-09-10T03:38:41.020Z,0.00
2018-09-10T03:39:40.980Z,0.00
2018-09-10T03:40:40.984Z,0.00
2018-09-10T03:41:40.990Z,0.00
2018-09-10T03:42:40.943Z,0.00
2018-09-10T03:43:40.936Z,0.00
2018-09-10T03:44:40.953Z,0.00
2018-09-10T03:45:40.913Z,0.00
2018-09-10T03:46:40.902Z,0.00
2018-09-10T03:47:40.897Z,0.00
2018-09-10T03:48:40.878Z,0.00
2018-09-10T03:49:40.878Z,0.00
2018-09-10T03:50:40.875Z,0.00
2018-09-10T03:51:40.890Z,0.00
2018-09-10T03:52:40.833Z,0.00
2018-09-10T03:53:40.828Z,0.00
2018-09-10T03:54:40.817Z,0.00
2018-09-10T03:55:40.829Z,0.00
2018-09-10T03:56:40.784Z,0.00
2018-09-10T03:57:40.780Z,0.00
2018-09-10T03:58:40.769Z,0.00
2018-09-10T03:59:40.749Z,0.00
2018-09-10T04:00:40.764Z,0.00
2018-09-10T04:01:40.758Z,0.00
2018-09-10T04:02:40.722Z,0.00
2018-09-10T04:03:40.734Z,0.00
2018-09-10T04:04:40.702Z,0.00
2018-09-10T04:05:40.714Z,0.00
2018-09-10T04:06:40.666Z,0.00
2018-09-10T04:07:40.656Z,0.00
2018-09-10T04:08:40.643Z,0.00
2018-09-10T04:09:40.635Z,0.00
2018-09-10T04:10:40.625Z,0.00
2018-09-10T04:11:40.641Z,0.00
2018-09-10T04:12:40.602Z,0.00
2018-09-10T04:13:40.611Z,0.00
2018-09-10T04:14:40.576Z,0.00
2018-09-10T04:15:40.589Z,0.00
2018-09-10T04:16:40.555Z,0.00
2018-09-10T04:17:40.542Z,0.00
2018-09-10T04:18:40.561Z,0.00
2018-09-10T04:19:40.520Z,0.00
2018-09-10T04:20:40.534Z,0.00
2018-09-10T04:21:40.521Z,0.00
2018-09-10T04:22:40.482Z,0.00
2018-09-10T04:23:40.470Z,0.00
2018-09-10T04:24:40.462Z,0.00
2018-09-10T04:25:40.462Z,0.00
2018-09-10T04:26:40.473Z,0.00
2018-09-10T04:27:40.479Z,0.00
2018-09-10T04:28:40.420Z,0.00
2018-09-10T04:29:40.409Z,0.00
2018-09-10T04:30:40.396Z,0.00
2018-09-10T04:31:40.411Z,0.00
2018-09-10T04:32:40.375Z,0.00
2018-09-10T04:33:40.367Z,0.00
2018-09-10T04:34:40.354Z,0.00
2018-09-10T04:35:40.392Z,0.00
2018-09-10T04:36:40.357Z,0.00
2018-09-10T04:37:40.312Z,0.00
2018-09-10T04:38:40.327Z,0.00
2018-09-10T04:39:40.291Z,0.00
2018-09-10T04:40:40.280Z,0.00
2018-09-10T04:41:40.295Z,0.00
2018-09-10T04:42:40.262Z,0.00
2018-09-10T04:43:40.253Z,0.00
2018-09-10T04:44:40.278Z,0.00
2018-09-10T04:45:40.218Z,0.00
2018-09-10T04:46:40.278Z,0.00
2018-09-10T04:47:40.224Z,0.00
2018-09-10T04:48:40.187Z,0.00
2018-09-10T04:49:40.221Z,0.00
2018-09-10T04:50:40.167Z,0.00
2018-09-10T04:51:40.269Z,0.00
2018-09-10T04:52:40.140Z,0.00
2018-09-10T04:53:40.161Z,0.00
2018-09-10T04:54:40.115Z,0.00
2018-09-10T04:55:40.114Z,0.00
2018-09-10T04:56:40.099Z,0.00
2018-09-10T04:57:40.107Z,0.00
2018-09-10T04:58:40.143Z,0.00
2018-09-10T04:59:40.059Z,0.00
2018-09-10T05:00:40.058Z,0.00
2018-09-10T05:01:40.041Z,0.00
2018-09-10T05:02:40.049Z,0.00
2018-09-10T05:03:40.039Z,0.00
2018-09-10T05:04:40.098Z,0.00
2018-09-10T05:05:40.187Z,0.00
2018-09-10T05:06:39.981Z,0.00
2018-09-10T05:07:39.969Z,0.00
2018-09-10T05:08:40.034Z,0.00
2018-09-10T05:09:39.941Z,0.00
2018-09-10T05:10:40.100Z,0.00
2018-09-10T05:11:39.923Z,0.00
2018-09-10T05:12:39.916Z,0.00
2018-09-10T05:13:39.903Z,0.00
2018-09-10T05:14:39.915Z,0.00
2018-09-10T05:15:39.968Z,0.00
2018-09-10T05:16:39.863Z,0.00
2018-09-10T05:17:39.883Z,0.00
2018-09-10T05:18:39.861Z,0.00
2018-09-10T05:19:39.827Z,0.00
2018-09-10T05:20:40.059Z,0.00
2018-09-10T05:21:39.859Z,0.00
2018-09-10T05:22:39.797Z,0.00
2018-09-10T05:23:39.781Z,0.00
2018-09-10T05:24:39.779Z,0.00
2018-09-10T05:25:39.765Z,0.00
2018-09-10T05:26:39.783Z,0.00
2018-09-10T05:27:39.741Z,0.00
2018-09-10T05:28:39.722Z,0.00
2018-09-10T05:29:39.741Z,0.00
2018-09-10T05:30:39.711Z,0.00
2018-09-10T05:31:39.691Z,0.00
2018-09-10T05:32:39.707Z,0.00
2018-09-10T05:33:39.671Z,4.00
2018-09-10T05:34:39.749Z,4.00
2018-09-10T05:35:39.656Z,4.00
2018-09-10T05:36:39.638Z,4.00
2018-09-10T05:37:39.620Z,4.00
2018-09-10T05:38:39.621Z,0.00
2018-09-10T05:39:39.608Z,0.00
2018-09-10T05:40:39.620Z,0.00
2018-09-10T05:41:39.651Z,0.00
2018-09-10T05:42:39.568Z,0.00
2018-09-10T05:43:39.558Z,0.00
2018-09-10T05:44:39.546Z,0.00
2018-09-10T05:45:39.531Z,0.00
2018-09-10T05:46:39.550Z,0.00
2018-09-10T05:47:39.545Z,4.00
2018-09-10T05:48:39.502Z,4.00
2018-09-10T05:49:39.481Z,4.00
2018-09-10T05:50:39.504Z,4.00
2018-09-10T05:51:39.462Z,4.00
2018-09-10T05:52:39.461Z,4.00
2018-09-10T05:53:39.438Z,0.00
2018-09-10T05:54:39.425Z,0.00
2018-09-10T05:55:39.542Z,0.00
2018-09-10T05:56:39.404Z,0.00
2018-09-10T05:57:39.389Z,0.00
2018-09-10T05:58:39.380Z,0.00
2018-09-10T05:59:39.370Z,0.00
2018-09-10T06:00:39.382Z,4.00
2018-09-10T06:01:39.382Z,4.00
2018-09-10T06:02:39.343Z,4.00
2018-09-10T06:03:39.320Z,4.00
2018-09-10T06:04:39.310Z,4.00
2018-09-10T06:05:39.306Z,4.00
2018-09-10T06:06:39.312Z,4.00
2018-09-10T06:07:39.286Z,4.00
2018-09-10T06:08:39.311Z,0.00
2018-09-10T06:09:39.260Z,4.00
2018-09-10T06:10:39.313Z,4.00
2018-09-10T06:11:39.272Z,4.00
2018-09-10T06:12:39.223Z,4.00
2018-09-10T06:13:39.204Z,4.00
2018-09-10T06:14:39.191Z,4.00
2018-09-10T06:15:39.179Z,4.00
2018-09-10T06:16:39.300Z,8.00
2018-09-10T06:17:39.161Z,4.00
2018-09-10T06:18:39.153Z,4.00
2018-09-10T06:19:39.162Z,4.00
2018-09-10T06:20:39.239Z,8.00
2018-09-10T06:21:39.169Z,8.00
2018-09-10T06:22:39.100Z,8.00
2018-09-10T06:23:39.098Z,8.00
2018-09-10T06:24:39.110Z,8.00
2018-09-10T06:25:39.102Z,4.00
2018-09-10T06:26:39.113Z,8.00
2018-09-10T06:27:39.070Z,8.00
2018-09-10T06:28:39.091Z,8.00
2018-09-10T06:29:39.056Z,8.00
2018-09-10T06:30:39.045Z,4.00
2018-09-10T06:31:39.025Z,4.00
2018-09-10T06:32:39.026Z,8.00
2018-09-10T06:33:38.981Z,8.00
2018-09-10T06:34:39.221Z,12.00
2018-09-10T06:35:38.987Z,8.00
2018-09-10T06:36:38.954Z,8.00
2018-09-10T06:37:38.964Z,12.00
2018-09-10T06:38:38.935Z,8.00
2018-09-10T06:39:38.912Z,12.00
2018-09-10T06:40:38.902Z,16.00
2018-09-10T06:41:38.888Z,24.00
2018-09-10T06:42:38.928Z,28.00
2018-09-10T06:43:38.891Z,20.00
2018-09-10T06:44:38.857Z,24.00
2018-09-10T06:45:38.842Z,16.00
2018-09-10T06:46:39.699Z,16.00
2018-09-10T06:47:38.906Z,16.00
2018-09-10T06:48:38.809Z,12.00
2018-09-10T06:49:38.814Z,8.00
2018-09-10T06:50:38.797Z,8.00
2018-09-10T06:51:38.777Z,8.00
2018-09-10T06:52:38.792Z,12.00
2018-09-10T06:53:38.753Z,28.00
2018-09-10T06:54:38.742Z,12.00
2018-09-10T06:55:38.750Z,8.00
2018-09-10T06:56:38.720Z,8.00
2018-09-10T06:57:38.724Z,12.00
2018-09-10T06:58:38.737Z,8.00
2018-09-10T06:59:38.728Z,8.00
2018-09-10T07:00:38.708Z,12.00
2018-09-10T07:01:38.665Z,12.00
2018-09-10T07:02:38.656Z,28.00
2018-09-10T07:03:38.724Z,16.00
2018-09-10T07:04:38.631Z,12.00
2018-09-10T07:05:38.627Z,12.00
2018-09-10T07:06:38.616Z,12.00
2018-09-10T07:07:38.609Z,12.00
2018-09-10T07:08:38.612Z,12.00
2018-09-10T07:09:38.585Z,12.00
2018-09-10T07:10:39.248Z,12.00
2018-09-10T07:11:38.609Z,12.00
2018-09-10T07:12:39.867Z,16.00
2018-09-10T07:13:38.555Z,12.00
2018-09-10T07:14:38.518Z,12.00
2018-09-10T07:15:38.514Z,12.00
2018-09-10T07:16:38.498Z,16.00
2018-09-10T07:17:38.490Z,16.00
2018-09-10T07:18:38.589Z,12.00
2018-09-10T07:19:38.469Z,12.00
2018-09-10T07:20:38.453Z,16.00
2018-09-10T07:21:41.183Z,16.00
2018-09-10T07:22:38.430Z,20.00
2018-09-10T07:23:38.461Z,20.00
2018-09-10T07:24:38.409Z,24.00
2018-09-10T07:25:38.512Z,24.00
2018-09-10T07:26:38.391Z,28.00
2018-09-10T07:27:38.372Z,68.00
2018-09-10T07:28:38.364Z,76.00
2018-09-10T07:29:38.391Z,88.00
2018-09-10T07:30:38.339Z,72.00
2018-09-10T07:31:38.328Z,80.00
2018-09-10T07:32:38.317Z,68.00
2018-09-10T07:33:38.286Z,68.00
2018-09-10T07:34:38.381Z,68.00
2018-09-10T07:35:38.283Z,36.00
2018-09-10T07:36:38.280Z,56.00
2018-09-10T07:37:38.261Z,44.00
2018-09-10T07:38:38.268Z,52.00
2018-09-10T07:39:38.267Z,28.00
2018-09-10T07:40:38.318Z,20.00
2018-09-10T07:41:38.358Z,16.00
2018-09-10T07:42:38.209Z,16.00
2018-09-10T07:43:38.239Z,16.00
2018-09-10T07:44:38.337Z,16.00
2018-09-10T07:45:38.169Z,16.00
2018-09-10T07:46:38.204Z,12.00
2018-09-10T07:47:38.151Z,12.00
2018-09-10T07:48:38.140Z,12.00
2018-09-10T07:49:38.149Z,12.00
2018-09-10T07:50:38.352Z,12.00
2018-09-10T07:51:38.108Z,8.00
2018-09-10T07:52:38.100Z,12.00
2018-09-10T07:53:38.095Z,12.00
2018-09-10T07:54:38.135Z,8.00
2018-09-10T07:55:38.072Z,8.00
2018-09-10T07:56:38.077Z,8.00
2018-09-10T07:57:38.040Z,8.00
2018-09-10T07:58:38.042Z,8.00
2018-09-10T07:59:38.031Z,8.00
2018-09-10T08:00:38.015Z,8.00
2018-09-10T08:01:38.003Z,12.00
2018-09-10T08:02:38.038Z,8.00
2018-09-10T08:03:38.021Z,12.00
2018-09-10T08:04:37.992Z,12.00
2018-09-10T08:05:38.007Z,12.00
2018-09-10T08:06:38.005Z,8.00
2018-09-10T08:07:37.958Z,8.00
2018-09-10T08:08:37.944Z,8.00
2018-09-10T08:09:37.969Z,12.00
2018-09-10T08:10:37.899Z,12.00
2018-09-10T08:11:37.884Z,8.00
2018-09-10T08:12:37.891Z,8.00
2018-09-10T08:13:37.899Z,12.00
2018-09-10T08:14:37.876Z,8.00
2018-09-10T08:15:37.905Z,12.00
2018-09-10T08:16:37.901Z,12.00
2018-09-10T08:17:37.824Z,12.00
2018-09-10T08:18:37.817Z,12.00
2018-09-10T08:19:37.792Z,12.00
2018-09-10T08:20:37.781Z,12.00
2018-09-10T08:21:37.769Z,12.00
2018-09-10T08:22:38.047Z,12.00
2018-09-10T08:23:37.762Z,12.00
2018-09-10T08:24:37.740Z,12.00
2018-09-10T08:25:37.732Z,12.00
2018-09-10T08:26:37.711Z,12.00
2018-09-10T08:27:37.700Z,12.00
2018-09-10T08:28:37.722Z,12.00
2018-09-10T08:29:37.696Z,12.00
2018-09-10T08:30:37.671Z,12.00
2018-09-10T08:31:37.681Z,12.00
2018-09-10T08:32:37.658Z,12.00
2018-09-10T08:33:37.647Z,16.00
2018-09-10T08:34:37.634Z,16.00
2018-09-10T08:35:37.610Z,12.00
2018-09-10T08:36:37.634Z,12.00
2018-09-10T08:37:37.593Z,16.00
2018-09-10T08:38:37.584Z,16.00
2018-09-10T08:39:37.559Z,12.00
2018-09-10T08:40:37.583Z,12.00
2018-09-10T08:41:37.545Z,12.00
2018-09-10T08:42:37.621Z,12.00
2018-09-10T08:43:37.518Z,12.00
2018-09-10T08:44:37.504Z,12.00
2018-09-10T08:45:37.496Z,12.00
2018-09-10T08:46:37.492Z,12.00
2018-09-10T08:47:37.510Z,12.00
2018-09-10T08:48:37.457Z,16.00
2018-09-10T08:49:37.450Z,16.00
2018-09-10T08:50:37.441Z,12.00
2018-09-10T08:51:37.427Z,16.00
2018-09-10T08:52:37.474Z,16.00
2018-09-10T08:53:37.411Z,16.00
2018-09-10T08:54:37.663Z,16.00
2018-09-10T08:55:37.532Z,16.00
2018-09-10T08:56:37.379Z,16.00
2018-09-10T08:57:37.380Z,16.00
2018-09-10T08:58:37.355Z,16.00
2018-09-10T08:59:37.337Z,12.00
2018-09-10T09:00:37.321Z,16.00
2018-09-10T09:01:37.310Z,16.00
2018-09-10T09:02:37.598Z,16.00
2018-09-10T09:03:37.283Z,16.00
2018-09-10T09:04:37.283Z,20.00
2018-09-10T09:05:37.259Z,20.00
2018-09-10T09:06:37.253Z,20.00
2018-09-10T09:07:37.252Z,24.00
2018-09-10T09:08:37.269Z,20.00
2018-09-10T09:09:37.216Z,24.00
2018-09-10T09:10:37.212Z,24.00
2018-09-10T09:11:37.211Z,20.00
2018-09-10T09:12:37.211Z,20.00
2018-09-10T09:13:37.212Z,20.00
2018-09-10T09:14:37.160Z,20.00
2018-09-10T09:15:37.151Z,20.00
2018-09-10T09:16:37.138Z,20.00
2018-09-10T09:17:37.205Z,20.00
2018-09-10T09:18:37.141Z,24.00
2018-09-10T09:19:37.111Z,24.00
2018-09-10T09:20:37.120Z,32.00
2018-09-10T09:21:37.076Z,28.00
2018-09-10T09:22:37.072Z,32.00
2018-09-10T09:23:37.155Z,32.00
2018-09-10T09:24:37.051Z,32.00
2018-09-10T09:25:37.036Z,36.00
2018-09-10T09:26:37.053Z,40.00
2018-09-10T09:27:37.015Z,32.00
2018-09-10T09:28:36.996Z,32.00
2018-09-10T09:29:37.076Z,28.00
2018-09-10T09:30:36.977Z,28.00
2018-09-10T09:31:36.980Z,28.00
2018-09-10T09:32:36.963Z,28.00
2018-09-10T09:33:37.003Z,28.00
2018-09-10T09:34:36.928Z,28.00
2018-09-10T09:35:37.063Z,28.00
2018-09-10T09:36:36.910Z,24.00
2018-09-10T09:37:36.979Z,28.00
2018-09-10T09:38:36.884Z,32.00
2018-09-10T09:39:36.879Z,36.00
2018-09-10T09:40:36.906Z,24.00
2018-09-10T09:41:36.853Z,24.00
2018-09-10T09:42:36.842Z,24.00
2018-09-10T09:43:36.830Z,24.00
2018-09-10T09:44:36.856Z,24.00
2018-09-10T09:45:36.799Z,24.00
2018-09-10T09:46:36.842Z,24.00
2018-09-10T09:47:36.805Z,24.00
2018-09-10T09:48:36.807Z,28.00
2018-09-10T09:49:36.799Z,24.00
2018-09-10T09:50:36.770Z,20.00
2018-09-10T09:51:36.766Z,20.00
2018-09-10T09:52:36.757Z,16.00
2018-09-10T09:53:36.739Z,16.00
2018-09-10T09:54:36.728Z,16.00
2018-09-10T09:55:36.741Z,16.00
2018-09-10T09:56:36.699Z,12.00
2018-09-10T09:57:36.690Z,16.00
2018-09-10T09:58:36.680Z,16.00
2018-09-10T09:59:36.648Z,16.00
2018-09-10T10:00:36.686Z,16.00
2018-09-10T10:01:36.636Z,16.00
2018-09-10T10:02:36.608Z,16.00
2018-09-10T10:03:36.600Z,20.00
2018-09-10T10:04:36.693Z,20.00
2018-09-10T10:05:36.587Z,20.00
2018-09-10T10:06:36.588Z,24.00
2018-09-10T10:07:36.560Z,32.00
2018-09-10T10:08:36.615Z,28.00
2018-09-10T10:09:36.544Z,28.00
2018-09-10T10:10:36.627Z,24.00
2018-09-10T10:11:36.558Z,24.00
2018-09-10T10:12:37.179Z,24.00
2018-09-10T10:13:36.493Z,20.00
2018-09-10T10:14:36.474Z,20.00
2018-09-10T10:15:36.469Z,16.00
2018-09-10T10:16:36.498Z,12.00
2018-09-10T10:17:36.441Z,12.00
2018-09-10T10:18:36.428Z,12.00
2018-09-10T10:19:37.155Z,12.00
2018-09-10T10:20:36.429Z,16.00
2018-09-10T10:21:36.398Z,16.00
2018-09-10T10:22:36.387Z,20.00
2018-09-10T10:23:36.375Z,16.00
2018-09-10T10:24:36.361Z,20.00
2018-09-10T10:25:36.357Z,20.00
2018-09-10T10:26:36.368Z,20.00
2018-09-10T10:27:36.330Z,16.00
2018-09-10T10:28:36.312Z,16.00
2018-09-10T10:29:36.309Z,16.00
2018-09-10T10:30:36.291Z,16.00
2018-09-10T10:31:36.311Z,12.00
2018-09-10T10:32:38.138Z,16.00
2018-09-10T10:33:36.251Z,16.00
2018-09-10T10:34:36.240Z,16.00
2018-09-10T10:35:36.228Z,16.00
2018-09-10T10:36:36.377Z,16.00
2018-09-10T10:37:36.174Z,12.00
2018-09-10T10:38:36.201Z,16.00
2018-09-10T10:39:36.198Z,16.00
2018-09-10T10:40:36.176Z,16.00
2018-09-10T10:41:36.177Z,12.00
2018-09-10T10:42:36.170Z,12.00
2018-09-10T10:43:36.162Z,12.00
2018-09-10T10:44:36.140Z,12.00
2018-09-10T10:45:36.122Z,12.00
2018-09-10T10:46:36.107Z,12.00
2018-09-10T10:47:36.225Z,12.00
2018-09-10T10:48:36.089Z,12.00
2018-09-10T10:49:36.075Z,12.00
2018-09-10T10:50:36.077Z,12.00
2018-09-10T10:51:36.054Z,12.00
2018-09-10T10:52:36.077Z,12.00
2018-09-10T10:53:36.041Z,12.00
2018-09-10T10:54:36.025Z,12.00
2018-09-10T10:55:36.013Z,12.00
2018-09-10T10:56:35.991Z,12.00
2018-09-10T10:57:36.014Z,16.00
2018-09-10T10:58:36.005Z,12.00
2018-09-10T10:59:35.962Z,16.00
2018-09-10T11:00:35.951Z,12.00
2018-09-10T11:01:35.945Z,12.00
2018-09-10T11:02:35.962Z,16.00
2018-09-10T11:03:35.917Z,16.00
2018-09-10T11:04:35.908Z,12.00
2018-09-10T11:05:35.903Z,16.00
2018-09-10T11:06:35.881Z,16.00
2018-09-10T11:07:35.904Z,20.00
2018-09-10T11:08:35.863Z,20.00
2018-09-10T11:09:35.882Z,24.00
2018-09-10T11:10:35.800Z,20.00
2018-09-10T11:11:35.828Z,20.00
2018-09-10T11:12:35.811Z,24.00
2018-09-10T11:13:35.803Z,24.00
2018-09-10T11:14:35.801Z,24.00
2018-09-10T11:15:35.782Z,28.00
2018-09-10T11:16:35.840Z,28.00
2018-09-10T11:17:35.786Z,32.00
2018-09-10T11:18:35.803Z,36.00
2018-09-10T11:19:35.745Z,36.00
2018-09-10T11:20:35.722Z,28.00
2018-09-10T11:21:35.714Z,28.00
2018-09-10T11:22:35.752Z,28.00
2018-09-10T11:23:35.701Z,28.00
2018-09-10T11:24:35.681Z,24.00
2018-09-10T11:25:35.670Z,20.00
2018-09-10T11:26:35.662Z,24.00
2018-09-10T11:27:35.709Z,24.00
2018-09-10T11:28:35.661Z,16.00
2018-09-10T11:29:35.625Z,20.00
2018-09-10T11:30:35.616Z,16.00
2018-09-10T11:31:35.627Z,16.00
2018-09-10T11:32:35.620Z,16.00
2018-09-10T11:33:35.666Z,16.00
2018-09-10T11:34:35.622Z,16.00
2018-09-10T11:35:35.583Z,16.00
2018-09-10T11:36:35.540Z,16.00
2018-09-10T11:37:35.533Z,16.00
2018-09-10T11:38:35.575Z,16.00
2018-09-10T11:39:35.547Z,16.00
2018-09-10T11:40:35.503Z,16.00
2018-09-10T11:41:35.515Z,16.00
2018-09-10T11:42:35.501Z,16.00
2018-09-10T11:43:35.494Z,20.00
2018-09-10T11:44:35.489Z,20.00
2018-09-10T11:45:35.446Z,16.00
2018-09-10T11:46:35.444Z,16.00
2018-09-10T11:47:35.424Z,16.00
2018-09-10T11:48:35.414Z,20.00
2018-09-10T11:49:35.446Z,20.00
2018-09-10T11:50:35.393Z,20.00
2018-09-10T11:51:35.378Z,16.00
2018-09-10T11:52:35.374Z,20.00
2018-09-10T11:53:35.360Z,16.00
2018-09-10T11:54:35.381Z,16.00
2018-09-10T11:55:35.400Z,16.00
2018-09-10T11:56:35.335Z,16.00
2018-09-10T11:57:35.325Z,20.00
2018-09-10T11:58:35.313Z,20.00
2018-09-10T11:59:35.338Z,20.00
2018-09-10T12:00:35.282Z,16.00
2018-09-10T12:01:35.345Z,20.00
2018-09-10T12:02:35.263Z,20.00
2018-09-10T12:03:35.313Z,20.00
2018-09-10T12:04:35.284Z,20.00
2018-09-10T12:05:35.339Z,16.00
2018-09-10T12:06:35.220Z,16.00
2018-09-10T12:07:35.205Z,16.00
2018-09-10T12:08:35.186Z,12.00
2018-09-10T12:09:35.218Z,16.00
2018-09-10T12:10:35.215Z,12.00
2018-09-10T12:11:35.160Z,16.00
2018-09-10T12:12:35.140Z,12.00
2018-09-10T12:13:35.153Z,12.00
2018-09-10T12:14:35.118Z,12.00
2018-09-10T12:15:35.137Z,12.00
2018-09-10T12:16:35.105Z,12.00
2018-09-10T12:17:35.094Z,16.00
2018-09-10T12:18:35.088Z,12.00
2018-09-10T12:19:35.080Z,12.00
2018-09-10T12:20:35.103Z,12.00
2018-09-10T12:21:35.078Z,12.00
2018-09-10T12:22:35.026Z,12.00
2018-09-10T12:23:35.017Z,12.00
2018-09-10T12:24:35.002Z,12.00
2018-09-10T12:25:35.021Z,12.00
2018-09-10T12:26:35.653Z,12.00
2018-09-10T12:27:34.968Z,12.00
2018-09-10T12:28:34.964Z,12.00
2018-09-10T12:29:34.953Z,12.00
2018-09-10T12:30:34.969Z,12.00
2018-09-10T12:31:35.154Z,12.00
2018-09-10T12:32:34.923Z,16.00
2018-09-10T12:33:34.908Z,16.00
2018-09-10T12:34:34.887Z,16.00
2018-09-10T12:35:34.900Z,16.00
2018-09-10T12:36:34.868Z,12.00
2018-09-10T12:37:34.859Z,16.00
2018-09-10T12:38:34.856Z,16.00
2018-09-10T12:39:34.889Z,16.00
2018-09-10T12:40:34.892Z,20.00
2018-09-10T12:41:34.806Z,16.00
2018-09-10T12:42:34.833Z,20.00
2018-09-10T12:43:34.798Z,20.00
2018-09-10T12:44:34.872Z,20.00
2018-09-10T12:45:34.794Z,24.00
2018-09-10T12:46:34.823Z,20.00
2018-09-10T12:47:34.738Z,28.00
2018-09-10T12:48:34.871Z,28.00
2018-09-10T12:49:34.716Z,28.00
2018-09-10T12:50:34.732Z,24.00
2018-09-10T12:51:34.980Z,24.00
2018-09-10T12:52:35.625Z,20.00
2018-09-10T12:53:34.670Z,20.00
2018-09-10T12:54:34.658Z,16.00
2018-09-10T12:55:34.655Z,16.00
2018-09-10T12:56:34.638Z,12.00
2018-09-10T12:57:34.660Z,12.00
2018-09-10T12:58:34.620Z,12.00
2018-09-10T12:59:34.607Z,8.00
2018-09-10T13:00:34.595Z,8.00
2018-09-10T13:01:34.596Z,12.00
2018-09-10T13:02:34.603Z,12.00
2018-09-10T13:03:34.571Z,12.00
2018-09-10T13:04:34.556Z,12.00
2018-09-10T13:05:34.541Z,12.00
2018-09-10T13:06:34.528Z,16.00
2018-09-10T13:07:34.517Z,20.00